KMRF/MRF METAR and TAF weather

Enter ICAO airport designator
Station Type Date Time Source
KMRF METAR 2022/01/26 07:56 UTC NOAA

KMRF 260756Z AUTO 33006KT 10SM CLR 00/M09 A3009 RMK AO2 SLP171 T00001089 FZRANO


Station Type Date Time Source
KMRF Decoded METAR 2022/01/26 07:56 UTC NOAA

Marfa, TX, United States (KMRF) 30-22N 104-01W 1481M
Jan 26, 2022 - 02:56 AM EST / 2022.01.26 0756 UTC
Wind: from the NNW (330 degrees) at 7 MPH (6 KT):0
Visibility: 10 mile(s):0
Sky conditions: clear
Temperature: 32.0 F (0.0 C)
Windchill: 24 F (-4 C):1
Dew Point: 16.0 F (-8.9 C)
Relative Humidity: 51%
Pressure (altimeter): 30.09 in. Hg (1018 hPa)
ob: KMRF 260756Z AUTO 33006KT 10SM CLR 00/M09 A3009 RMK AO2 SLP171 T00001089 FZRANO
cycle: 8

Station Type Date Time Source
KMRF TAF UTC NOAA

Error!

Example: see airport list